Terminal Aerodrome Forecast
Issued by NWS

Home | Current Version | Previous Version | Graphics & Text | Print | Product List | Glossary On
Versions: 1 2 3 4 5 6 7 8 9 10 11 12
000
FTUS42 KMHX 182321
TAFOAJ
TAF
KOAJ 182321Z 1900/1924 01003KT P6SM SKC
     FM190800 00000KT 4SM BR FEW250
     FM191200 01006KT P6SM FEW250
      AMD LTD TO CLD VIS AND WIND=

USA.gov is the U.S. government's official web portal to all federal, state and local government web resources and services.